Time;durP1;ratioP1;P1;durP2;ratioP2;P2;SDS_P1;SDS_P2;PMS_P1;PMS_P2;Temp;Humidity;BMP_temperature;BMP_pressure;BME280_temperature;BME280_humidity;BME280_pressure;Samples;Min_cycle;Max_cycle;Signal;HPM_P1;HPM_P2
2022/12/24 09:17:08;;;;;;;65.63;47.25;;;128.50;2252.80;;;;;;4978546;28;20106;-92
2022/12/24 09:19:33;;;;;;;60.22;43.70;;;128.70;2252.80;;;;;;4976839;28;20071;-89
2022/12/24 09:21:59;;;;;;;63.83;47.30;;;128.80;2252.80;;;;;;4977202;28;20114;-91
2022/12/24 09:24:25;;;;;;;80.38;50.17;;;128.90;2252.80;;;;;;4977239;28;20026;-90
2022/12/24 09:26:51;;;;;;;71.97;50.40;;;153.60;2252.80;;;;;;4977073;28;20027;-91
2022/12/24 09:29:17;;;;;;;75.82;50.28;;;153.70;2252.80;;;;;;4977262;28;20030;-89
2022/12/24 09:31:43;;;;;;;79.68;52.70;;;153.80;2252.80;;;;;;4977413;28;20077;-91
2022/12/24 09:34:09;;;;;;;71.88;46.50;;;153.80;2252.80;;;;;;4977028;28;20090;-91
2022/12/24 09:36:35;;;;;;;66.03;46.30;;;153.90;2252.80;;;;;;4977165;28;20114;-91
2022/12/24 09:39:01;;;;;;;69.97;47.92;;;153.90;2252.80;;;;;;4977732;28;20038;-90
2022/12/24 09:41:41;;;;;;;75.30;56.35;;;153.90;2252.80;;;;;;4977097;28;20023;-89
2022/12/24 09:44:24;;;;;;;86.20;59.92;;;154.00;2252.80;;;;;;4977021;28;20122;-88
2022/12/24 09:46:52;;;;;;;74.38;52.40;;;154.10;2252.80;;;;;;4976756;28;20030;-89
2022/12/24 09:49:25;;;;;;;71.85;49.80;;;154.40;2252.80;;;;;;4976638;28;20558;-89
2022/12/24 09:51:59;;;;;;;59.42;41.95;;;154.30;2252.80;;;;;;4976750;28;20102;-90
2022/12/24 09:54:33;;;;;;;66.63;50.45;;;154.50;2252.80;;;;;;4976370;28;20031;-90
2022/12/24 09:57:11;;;;;;;67.97;50.33;;;154.50;2252.80;;;;;;4976982;28;20022;-89
2022/12/24 09:59:45;;;;;;;67.63;47.08;;;154.50;2252.80;;;;;;4976819;28;20023;-89
2022/12/24 10:02:14;;;;;;;79.18;54.28;;;154.50;2252.80;;;;;;4976484;28;20459;-90
2022/12/24 10:04:42;;;;;;;83.05;55.72;;;179.20;2252.80;;;;;;4976711;28;20489;-90
2022/12/24 10:07:26;;;;;;;80.50;58.63;;;179.30;2252.80;;;;;;4976286;28;20081;-89
2022/12/24 10:10:13;;;;;;;100.20;70.90;;;179.40;2252.80;;;;;;4976111;28;20039;-90
2022/12/24 10:12:58;;;;;;;113.35;77.93;;;179.40;2099.20;;;;;;4976173;28;20113;-87
2022/12/24 10:15:34;;;;;;;100.72;69.63;;;179.60;2252.80;;;;;;4976052;28;20037;-87
2022/12/24 10:18:29;;;;;;;88.10;64.68;;;179.70;2252.80;;;;;;4976370;28;20026;-89
2022/12/24 10:21:14;;;;;;;103.43;77.28;;;179.90;2252.80;;;;;;4976150;28;20027;-89
2022/12/24 10:24:12;;;;;;;115.90;81.55;;;180.00;2252.80;;;;;;4976336;28;20459;-88
2022/12/24 10:27:00;;;;;;;107.60;79.38;;;180.10;2252.80;;;;;;4975438;28;20133;-89
2022/12/24 10:29:40;;;;;;;166.43;111.20;;;204.90;2252.80;;;;;;4966911;28;20525;-86
2022/12/24 10:32:06;;;;;;;163.52;112.97;;;205.00;2252.80;;;;;;4976274;28;20027;-91
2022/12/24 10:34:45;;;;;;;157.57;110.70;;;205.00;2252.80;;;;;;4975652;28;20088;-89
2022/12/24 10:37:23;;;;;;;169.57;118.07;;;205.20;2252.80;;;;;;4976273;28;20379;-90
2022/12/24 10:39:49;;;;;;;146.60;107.63;;;205.20;2252.80;;;;;;4976253;28;20027;-89
2022/12/24 10:42:16;;;;;;;127.30;92.50;;;205.30;2252.80;;;;;;4975612;28;20037;-86
2022/12/24 10:44:48;;;;;;;78.18;57.85;;;205.30;2252.80;;;;;;4975721;28;20078;-87
2022/12/24 10:47:16;;;;;;;78.00;47.55;;;205.30;2252.80;;;;;;4970445;28;20027;-86
2022/12/24 10:49:47;;;;;;;57.78;37.50;;;205.30;2252.80;;;;;;4960384;28;20039;-87
2022/12/24 10:52:23;;;;;;;48.17;32.35;;;205.40;2252.80;;;;;;4963552;28;20027;-86
2022/12/24 10:55:10;;;;;;;49.53;34.25;;;205.40;2252.80;;;;;;4958865;28;20137;-88
2022/12/24 10:57:37;;;;;;;59.45;38.35;;;205.50;2252.80;;;;;;4961449;28;20071;-90
2022/12/24 11:00:05;;;;;;;52.88;37.05;;;205.50;2252.80;;;;;;4958815;28;20086;-88
2022/12/24 11:02:37;;;;;;;59.67;40.30;;;205.50;2252.80;;;;;;4956122;29;20392;-86
2022/12/24 11:05:30;;;;;;;60.50;43.05;;;205.50;2252.80;;;;;;4955874;29;20027;-86
2022/12/24 11:08:03;;;;;;;;;;;205.60;2252.80;;;;;;4946524;29;20043;-84
2022/12/24 11:10:30;;;;;;;41.90;31.50;;;205.60;2252.80;;;;;;4955179;28;19918;-87
2022/12/24 11:12:56;;;;;;;42.83;29.55;;;205.40;2252.80;;;;;;4955767;29;20035;-86
2022/12/24 11:15:31;;;;;;;44.55;33.95;;;205.50;2252.80;;;;;;4955787;28;20031;-87
2022/12/24 11:18:11;;;;;;;75.55;47.88;;;205.50;2252.80;;;;;;4955695;29;20126;-85
2022/12/24 11:20:37;;;;;;;61.20;41.70;;;205.60;2252.80;;;;;;4955627;29;20036;-86
2022/12/24 11:23:04;;;;;;;53.97;38.42;;;205.60;2252.80;;;;;;4955475;29;20127;-84
2022/12/24 11:25:32;;;;;;;57.25;39.40;;;205.60;2252.80;;;;;;4955204;29;20118;-86
2022/12/24 11:28:17;;;;;;;61.72;45.60;;;205.70;2252.80;;;;;;4956719;28;20070;-86
2022/12/24 11:30:54;;;;;;;68.82;48.25;;;205.70;2252.80;;;;;;4955539;29;20027;-86
2022/12/24 11:33:20;;;;;;;70.30;48.20;;;205.70;2252.80;;;;;;4955382;29;20039;-85
2022/12/24 11:35:50;;;;;;;81.75;59.58;;;205.70;2252.80;;;;;;4957763;28;20109;-86
2022/12/24 11:38:25;;;;;;;78.80;60.92;;;205.70;2252.80;;;;;;4974186;28;20066;-84
2022/12/24 11:41:10;;;;;;;83.28;59.78;;;205.70;2252.80;;;;;;4973313;28;20054;-85
2022/12/24 11:43:45;;;;;;;76.93;54.08;;;205.70;2252.80;;;;;;4975810;28;20035;-85
2022/12/24 11:46:20;;;;;;;74.97;53.55;;;205.70;2252.80;;;;;;4970480;28;20118;-86
2022/12/24 11:48:47;;;;;;;70.10;52.55;;;205.70;2252.80;;;;;;4965361;28;20035;-87
2022/12/24 11:51:20;;;;;;;87.00;63.88;;;230.40;2252.80;;;;;;4963551;28;20050;-88
2022/12/24 11:54:03;;;;;;;122.57;87.70;;;230.40;2252.80;;;;;;4962168;28;20038;-85
2022/12/24 11:56:37;;;;;;;135.13;96.07;;;205.70;2252.80;;;;;;4969713;28;20036;-85
2022/12/24 11:59:43;;;;;;;147.13;101.63;;;230.40;2252.80;;;;;;4973932;28;20027;-86
2022/12/24 12:02:26;;;;;;;133.65;94.43;;;230.40;2099.20;;;;;;4974374;28;20078;-86
2022/12/24 12:04:59;;;;;;;100.35;71.60;;;230.40;1894.40;;;;;;4975314;28;20097;-89
2022/12/24 12:07:29;;;;;;;97.13;71.90;;;230.40;2252.80;;;;;;4973985;28;20042;-86
2022/12/24 12:09:58;;;;;;;91.78;66.10;;;230.40;2252.80;;;;;;4974018;28;20133;-88
2022/12/24 12:12:31;;;;;;;90.00;64.50;;;230.40;2252.80;;;;;;4974357;28;20034;-83
2022/12/24 12:15:02;;;;;;;91.97;65.70;;;230.40;2252.80;;;;;;4973425;28;20097;-87
2022/12/24 12:17:49;;;;;;;90.82;68.03;;;230.40;2252.80;;;;;;4973571;28;20058;-86
2022/12/24 12:20:21;;;;;;;93.18;67.55;;;230.40;2252.80;;;;;;4973836;28;20101;-86
2022/12/24 12:22:55;;;;;;;106.13;74.68;;;230.40;2252.80;;;;;;4975282;28;20121;-86
2022/12/24 12:25:26;;;;;;;140.13;96.47;;;230.40;2252.80;;;;;;4974191;28;20103;-89
2022/12/24 12:27:54;;;;;;;162.15;110.25;;;230.40;2252.80;;;;;;4974165;28;20034;-89
2022/12/24 12:30:23;;;;;;;198.60;126.97;;;230.50;2252.80;;;;;;4975071;28;20105;-89
2022/12/24 12:33:19;;;;;;;227.65;142.88;;;230.40;2252.80;;;;;;4974428;28;20145;-89
2022/12/24 12:35:47;;;;;;;214.70;144.15;;;230.50;2252.80;;;;;;4973375;28;20027;-88
2022/12/24 12:38:27;;;;;;;218.52;140.95;;;230.50;2252.80;;;;;;4978562;28;20467;-88
2022/12/24 12:41:24;;;;;;;225.13;149.05;;;230.50;2252.80;;;;;;4974279;28;20030;-89
2022/12/24 12:44:19;;;;;;;226.10;150.95;;;230.60;2252.80;;;;;;4996291;28;20011;-88
2022/12/24 12:47:13;;;;;;;225.98;147.73;;;230.60;2252.80;;;;;;4993737;28;20065;-88
2022/12/24 12:50:04;;;;;;;224.25;149.55;;;230.60;2252.80;;;;;;4975466;28;20035;-89
2022/12/24 12:52:32;;;;;;;238.88;159.57;;;230.60;2252.80;;;;;;4975817;28;20030;-89
2022/12/24 12:55:23;;;;;;;227.27;153.82;;;230.50;2252.80;;;;;;4976011;28;20086;-87
2022/12/24 12:57:50;;;;;;;240.98;160.43;;;230.60;2252.80;;;;;;4966453;28;20178;-88
2022/12/24 13:00:18;;;;;;;239.35;162.90;;;230.50;2252.80;;;;;;4965053;28;20054;-86
2022/12/24 13:02:50;;;;;;;292.60;187.60;;;230.50;2252.80;;;;;;4966881;28;20162;-88
2022/12/24 13:05:21;;;;;;;284.60;184.35;;;230.60;2252.80;;;;;;4964058;28;20106;-87
2022/12/24 13:08:00;;;;;;;282.98;180.88;;;230.50;2252.80;;;;;;4962832;28;20034;-87
2022/12/24 13:11:16;;;;;;;238.40;163.88;;;230.60;2252.80;;;;;;4965125;28;20087;-88
2022/12/24 13:14:03;;;;;;;204.57;138.48;;;230.60;2252.80;;;;;;4919052;28;20137;-87
2022/12/24 13:16:32;;;;;;;169.10;118.35;;;230.60;2252.80;;;;;;4949245;29;20027;-87
2022/12/24 13:19:05;;;;;;;245.27;147.32;;;230.60;2252.80;;;;;;4948765;28;20378;-86
2022/12/24 13:21:31;;;;;;;172.68;115.30;;;230.60;2252.80;;;;;;4952204;28;20034;-88
2022/12/24 13:24:14;;;;;;;173.43;115.47;;;230.60;2252.80;;;;;;4967663;28;20031;-87
2022/12/24 13:26:40;;;;;;;157.63;109.82;;;230.60;2252.80;;;;;;4952371;28;20034;-86
2022/12/24 13:29:39;;;;;;;159.00;103.28;;;230.60;2252.80;;;;;;4951946;28;20463;-89
2022/12/24 13:32:20;;;;;;;200.35;115.82;;;230.60;2252.80;;;;;;4951878;28;20034;-87
2022/12/24 13:34:49;;;;;;;191.43;112.65;;;230.60;2252.80;;;;;;4941753;29;20037;-88
2022/12/24 13:37:35;;;;;;;190.85;117.03;;;230.60;2252.80;;;;;;4940798;29;20027;-88
2022/12/24 13:40:07;;;;;;;169.82;98.50;;;230.60;2252.80;;;;;;4941417;29;20126;-85
2022/12/24 13:43:05;;;;;;;156.95;99.65;;;230.60;2252.80;;;;;;4941525;29;20031;-87
2022/12/24 13:45:37;;;;;;;123.40;87.22;;;230.50;2252.80;;;;;;4941357;29;20181;-88
2022/12/24 13:48:06;;;;;;;155.87;98.13;;;230.60;2252.80;;;;;;4941549;29;20027;-86
2022/12/24 13:51:14;;;;;;;165.63;108.82;;;230.50;2252.80;;;;;;4941617;29;20265;-88
2022/12/24 13:53:45;;;;;;;217.25;144.98;;;230.50;2252.80;;;;;;4928373;29;20066;-89
2022/12/24 13:56:17;;;;;;;234.75;159.43;;;230.60;2252.80;;;;;;4940972;29;20035;-87
2022/12/24 13:58:49;;;;;;;243.23;162.40;;;230.60;2252.80;;;;;;4940276;29;20023;-92
2022/12/24 14:01:22;;;;;;;238.50;160.77;;;230.60;2252.80;;;;;;4954081;28;20038;-87
2022/12/24 14:03:56;;;;;;;194.23;129.98;;;230.50;2022.40;;;;;;4956735;29;20083;-89
2022/12/24 14:06:31;;;;;;;177.95;123.15;;;230.40;2252.80;;;;;;4955083;29;20027;-87
2022/12/24 14:09:24;;;;;;;130.98;93.22;;;230.40;2252.80;;;;;;4956603;29;20027;-90
2022/12/24 14:11:56;;;;;;;131.35;94.82;;;230.40;2252.80;;;;;;4953855;29;20047;-88
2022/12/24 14:14:31;;;;;;;100.47;73.22;;;230.40;2252.80;;;;;;4958162;29;20484;-91
2022/12/24 14:17:16;;;;;;;84.55;63.33;;;205.70;2252.80;;;;;;4956915;29;20028;-89
2022/12/24 14:19:49;;;;;;;82.40;56.85;;;205.70;2252.80;;;;;;4940633;29;20027;-88
2022/12/24 14:22:37;;;;;;;65.03;47.05;;;205.70;2252.80;;;;;;4956768;29;20148;-89
2022/12/24 14:25:18;;;;;;;73.68;49.50;;;205.70;2252.80;;;;;;4956063;28;20032;-89
2022/12/24 14:27:57;;;;;;;67.38;47.40;;;205.70;2252.80;;;;;;4956696;29;20024;-89
2022/12/24 14:30:28;;;;;;;67.15;47.95;;;205.60;2252.80;;;;;;4956842;29;20028;-87
2022/12/24 14:32:54;;;;;;;134.23;93.00;;;205.60;2252.80;;;;;;4956424;29;20039;-90
2022/12/24 14:35:25;;;;;;;171.43;122.55;;;205.70;2252.80;;;;;;4956628;29;20034;-91
2022/12/24 14:37:58;;;;;;;183.77;130.38;;;205.70;2252.80;;;;;;4956540;29;20031;-89
2022/12/24 14:40:29;;;;;;;193.82;138.40;;;205.70;2252.80;;;;;;4940491;29;20034;-88
2022/12/24 14:43:03;;;;;;;127.40;93.03;;;205.70;2252.80;;;;;;4956333;29;20391;-88
2022/12/24 14:45:29;;;;;;;96.65;70.40;;;205.70;2252.80;;;;;;4954385;28;20510;-88
2022/12/24 14:48:33;;;;;;;94.97;67.10;;;205.60;2252.80;;;;;;4958781;28;20031;-89
2022/12/24 14:51:31;;;;;;;85.60;62.38;;;205.60;2252.80;;;;;;4882174;29;20029;-89
2022/12/24 14:54:09;;;;;;;95.50;70.65;;;205.60;2252.80;;;;;;4959152;28;20034;-89
2022/12/24 14:56:35;;;;;;;95.65;67.25;;;205.50;2252.80;;;;;;4959467;28;20027;-91
2022/12/24 14:59:14;;;;;;;87.18;66.32;;;205.50;2252.80;;;;;;4959756;28;20030;-89
2022/12/24 15:01:40;;;;;;;170.65;117.35;;;205.40;2252.80;;;;;;4959341;28;20110;-91
2022/12/24 15:04:09;;;;;;;174.65;120.20;;;205.40;2252.80;;;;;;4959423;28;20081;-91
2022/12/24 15:06:48;;;;;;;181.18;129.50;;;205.50;2252.80;;;;;;4959516;28;20027;-90
2022/12/24 15:09:20;;;;;;;168.05;121.50;;;205.40;2252.80;;;;;;4958645;28;20082;-90
2022/12/24 15:11:48;;;;;;;153.82;108.43;;;205.40;2252.80;;;;;;4959475;28;20126;-91
2022/12/24 15:14:15;;;;;;;129.95;97.63;;;205.40;2252.80;;;;;;4959230;28;20506;-90
2022/12/24 15:16:47;;;;;;;100.47;74.63;;;205.40;2252.80;;;;;;4958901;28;20114;-88
2022/12/24 15:19:23;;;;;;;95.22;72.20;;;205.30;2252.80;;;;;;4959109;28;20455;-90
2022/12/24 15:21:49;;;;;;;101.53;76.38;;;205.30;2252.80;;;;;;4959059;28;20030;-90
2022/12/24 15:24:35;;;;;;;113.88;83.00;;;205.20;2252.80;;;;;;4958881;28;20113;-91
2022/12/24 15:27:12;;;;;;;124.15;92.13;;;205.30;2252.80;;;;;;4958918;28;20026;-90
2022/12/24 15:29:43;;;;;;;110.47;79.25;;;205.30;2252.80;;;;;;4958778;28;20082;-90
2022/12/24 15:32:15;;;;;;;124.97;88.22;;;205.30;2252.80;;;;;;4958375;28;20027;-88
2022/12/24 15:34:44;;;;;;;140.07;101.68;;;205.30;2252.80;;;;;;4958563;28;20097;-91
2022/12/24 15:37:10;;;;;;;136.63;100.07;;;205.30;2252.80;;;;;;4957946;28;20138;-88
2022/12/24 15:39:38;;;;;;;244.70;188.30;;;205.30;2252.80;;;;;;4952807;28;20479;-88
2022/12/24 15:42:14;;;;;;;206.77;128.30;;;205.30;2252.80;;;;;;4958630;28;20062;-89
2022/12/24 15:45:14;;;;;;;253.50;149.80;;;205.30;2252.80;;;;;;4951397;28;20047;-91
2022/12/24 15:47:57;;;;;;;221.45;136.25;;;205.30;2252.80;;;;;;4941433;28;20078;-89
2022/12/24 15:50:36;;;;;;;;;;;205.20;2252.80;;;;;;4952993;28;20515;-87
2022/12/24 15:53:19;;;;;;;225.43;138.45;;;205.20;2252.80;;;;;;4947533;28;19957;-87
2022/12/24 15:55:58;;;;;;;168.82;122.68;;;205.20;2252.80;;;;;;4958438;28;20026;-88
2022/12/24 15:58:27;;;;;;;193.93;124.20;;;205.20;2252.80;;;;;;4958554;28;20030;-90
2022/12/24 16:01:27;;;;;;;252.75;171.90;;;205.30;2252.80;;;;;;4958284;28;20030;-90
2022/12/24 16:03:52;;;;;;;245.50;162.75;;;205.20;2252.80;;;;;;4931740;28;20497;-89
2022/12/24 16:06:19;;;;;;;368.92;223.18;;;205.20;2252.80;;;;;;4958236;28;20118;-90
2022/12/24 16:08:45;;;;;;;362.23;242.23;;;205.30;2252.80;;;;;;4958211;28;20074;-92
2022/12/24 16:11:22;;;;;;;280.10;201.18;;;205.30;2252.80;;;;;;4970428;28;20043;-91
2022/12/24 16:14:23;;;;;;;299.55;216.77;;;205.20;2252.80;;;;;;4968327;28;20078;-90
2022/12/24 16:16:55;;;;;;;280.70;204.82;;;205.20;2252.80;;;;;;4917767;29;20028;-86
2022/12/24 16:19:27;;;;;;;255.68;188.43;;;205.30;2252.80;;;;;;4963100;28;20031;-87
2022/12/24 16:22:30;;;;;;;189.60;140.25;;;205.30;2252.80;;;;;;4954717;29;20030;-91
2022/12/24 16:24:45;;;;;;;264.20;194.63;;;205.30;2252.80;;;;;;4955747;29;20027;-87
2022/12/24 16:27:12;;;;;;;181.70;131.75;;;205.30;2252.80;;;;;;4954727;29;20287;-89
2022/12/24 16:29:38;;;;;;;208.50;152.43;;;205.40;2252.80;;;;;;4954433;29;20070;-88
2022/12/24 16:32:04;;;;;;;223.27;153.48;;;205.30;2252.80;;;;;;4954647;29;20063;-87
2022/12/24 16:34:31;;;;;;;221.38;148.85;;;205.30;2252.80;;;;;;4954591;29;20476;-89
2022/12/24 16:36:58;;;;;;;184.25;129.00;;;205.30;2252.80;;;;;;4954501;29;20023;-88
2022/12/24 16:39:27;;;;;;;181.07;128.75;;;205.30;2252.80;;;;;;4954732;29;20042;-89
2022/12/24 16:44:40;;;;;;;181.48;132.02;;;205.30;2252.80;;;;;;4955845;29;20476;-89
2022/12/24 16:47:19;;;;;;;208.13;148.25;;;205.30;2252.80;;;;;;4954797;29;20078;-90
2022/12/24 16:49:45;;;;;;;203.60;145.50;;;205.30;2252.80;;;;;;4956908;28;20035;-88
2022/12/24 16:52:22;;;;;;;191.57;138.25;;;205.30;2252.80;;;;;;4970775;28;20030;-89
2022/12/24 16:54:48;;;;;;;208.25;152.52;;;205.30;2252.80;;;;;;4977375;28;20049;-87
2022/12/24 16:57:14;;;;;;;204.43;150.70;;;205.30;2252.80;;;;;;4977168;28;20031;-90
2022/12/24 16:59:40;;;;;;;245.65;180.40;;;205.30;2252.80;;;;;;4977907;28;20109;-88
2022/12/24 17:02:06;;;;;;;242.15;176.32;;;205.30;2252.80;;;;;;4977797;28;20077;-89
2022/12/24 17:04:33;;;;;;;228.63;165.40;;;205.30;2252.80;;;;;;4977361;28;20031;-88
2022/12/24 17:06:59;;;;;;;250.80;183.18;;;205.30;2252.80;;;;;;4977918;28;20042;-89
2022/12/24 17:09:25;;;;;;;211.55;159.23;;;205.30;2252.80;;;;;;4977484;28;20022;-89
2022/12/24 17:11:50;;;;;;;217.07;158.95;;;205.30;2252.80;;;;;;4963263;28;20364;-87
2022/12/24 17:14:16;;;;;;;208.18;148.40;;;205.30;2252.80;;;;;;4961334;28;20034;-88
2022/12/24 17:16:42;;;;;;;218.52;157.30;;;205.30;2252.80;;;;;;4962022;28;20026;-88
2022/12/24 17:19:08;;;;;;;229.88;163.25;;;205.30;2252.80;;;;;;4961702;28;20031;-89
2022/12/24 17:21:34;;;;;;;229.65;155.70;;;205.20;2252.80;;;;;;4952556;29;20086;-89
2022/12/24 17:24:00;;;;;;;251.70;170.35;;;205.30;2252.80;;;;;;4958940;29;20053;-89
2022/12/24 17:26:26;;;;;;;230.38;157.52;;;205.30;2252.80;;;;;;4958185;29;20063;-88
2022/12/24 17:28:54;;;;;;;272.33;189.27;;;205.30;2252.80;;;;;;4959110;29;20464;-87
2022/12/24 17:31:20;;;;;;;245.55;173.32;;;205.30;2252.80;;;;;;4941414;29;20078;-86
2022/12/24 17:33:49;;;;;;;296.88;197.40;;;205.30;2252.80;;;;;;4941580;29;20035;-88
2022/12/24 17:36:15;;;;;;;288.58;190.07;;;205.30;2252.80;;;;;;4965789;28;20502;-89
2022/12/24 17:38:41;;;;;;;252.82;175.48;;;205.30;2252.80;;;;;;4951295;28;20431;-87
2022/12/24 17:41:11;;;;;;;212.23;149.60;;;205.20;2252.80;;;;;;4951406;28;20023;-87
2022/12/24 17:43:37;;;;;;;241.05;169.07;;;205.20;2252.80;;;;;;4950675;28;20454;-87
2022/12/24 17:46:05;;;;;;;229.35;158.82;;;205.20;2252.80;;;;;;4950533;28;20122;-88
2022/12/24 17:48:30;;;;;;;245.57;165.98;;;205.20;2252.80;;;;;;4966908;28;20016;-85
2022/12/24 17:50:56;;;;;;;229.15;160.60;;;205.20;2252.80;;;;;;4948799;28;20027;-87
2022/12/24 17:53:22;;;;;;;233.80;168.05;;;205.20;2252.80;;;;;;4950798;28;20063;-84
2022/12/24 17:55:48;;;;;;;223.35;158.15;;;205.20;2252.80;;;;;;4951070;28;20054;-87
2022/12/24 17:58:14;;;;;;;234.25;166.02;;;205.20;2252.80;;;;;;4950238;28;20512;-88
2022/12/24 18:00:40;;;;;;;245.05;172.73;;;205.20;2252.80;;;;;;4949101;28;20031;-88
2022/12/24 18:03:06;;;;;;;241.40;177.45;;;205.40;2252.80;;;;;;4949097;28;20122;-88
2022/12/24 18:05:35;;;;;;;261.30;192.15;;;205.20;2252.80;;;;;;4945438;29;20034;-86
2022/12/24 18:08:01;;;;;;;262.40;191.65;;;205.20;2252.80;;;;;;4941090;29;20078;-88
2022/12/24 18:10:27;;;;;;;271.55;193.70;;;205.20;2252.80;;;;;;4947311;28;20101;-89
2022/12/24 18:12:53;;;;;;;283.45;206.35;;;205.20;2252.80;;;;;;4962711;28;20031;-89
2022/12/24 18:15:20;;;;;;;262.90;194.63;;;205.20;2252.80;;;;;;4965830;28;20027;-90
2022/12/24 18:17:54;;;;;;;233.77;171.35;;;205.20;2252.80;;;;;;4965456;28;20106;-91
2022/12/24 18:20:21;;;;;;;229.82;167.43;;;205.10;2252.80;;;;;;4963882;28;20023;-90
2022/12/24 18:22:47;;;;;;;213.30;158.52;;;205.10;2252.80;;;;;;4962673;28;20031;-89
2022/12/24 18:25:13;;;;;;;213.23;154.88;;;205.10;2252.80;;;;;;4962573;28;20031;-88
2022/12/24 18:27:39;;;;;;;195.00;144.82;;;205.20;2252.80;;;;;;4966115;28;20022;-88
2022/12/24 18:30:06;;;;;;;169.85;124.30;;;205.20;2252.80;;;;;;4967060;28;20058;-89
2022/12/24 18:32:33;;;;;;;126.10;97.22;;;205.20;2252.80;;;;;;4962284;28;20027;-88
2022/12/24 18:34:59;;;;;;;112.00;87.60;;;205.10;2252.80;;;;;;4966118;28;20035;-88
2022/12/24 18:37:25;;;;;;;109.50;84.90;;;205.20;2252.80;;;;;;4963957;28;20019;-90
2022/12/24 18:39:51;;;;;;;108.57;82.13;;;205.20;2252.80;;;;;;4964745;28;20391;-90
2022/12/24 18:42:16;;;;;;;117.00;87.85;;;205.20;2252.80;;;;;;4972818;28;20062;-89
2022/12/24 18:44:43;;;;;;;120.13;90.88;;;205.20;2252.80;;;;;;4967670;28;20031;-91
2022/12/24 18:47:09;;;;;;;128.93;93.07;;;205.20;2252.80;;;;;;4967323;28;20031;-89
2022/12/24 18:49:36;;;;;;;117.28;86.65;;;205.20;2252.80;;;;;;4967584;28;20034;-92
2022/12/24 18:52:08;;;;;;;110.43;79.07;;;205.20;2252.80;;;;;;4960317;28;20023;-86
2022/12/24 18:54:34;;;;;;;131.48;97.05;;;205.20;2252.80;;;;;;4956255;29;20041;-88
2022/12/24 18:57:00;;;;;;;339.33;246.25;;;205.20;2252.80;;;;;;4956786;28;20035;-87
2022/12/24 18:59:25;;;;;;;460.08;321.13;;;205.20;2252.80;;;;;;4955916;29;20034;-85
2022/12/24 19:01:51;;;;;;;569.58;390.35;;;205.20;2252.80;;;;;;4956881;29;20027;-88
2022/12/24 19:04:17;;;;;;;417.23;295.17;;;205.10;2252.80;;;;;;4955519;29;20039;-83
2022/12/24 19:06:43;;;;;;;431.48;314.10;;;205.10;2252.80;;;;;;4955652;29;20058;-86
2022/12/24 19:09:09;;;;;;;416.73;315.75;;;205.10;2252.80;;;;;;4955789;29;20030;-84
2022/12/24 19:11:37;;;;;;;347.13;264.50;;;205.00;2252.80;;;;;;4954653;28;20054;-87
2022/12/24 19:14:04;;;;;;;349.63;273.20;;;205.10;2252.80;;;;;;4955792;29;20038;-87
2022/12/24 19:16:35;;;;;;;277.92;217.45;;;205.10;2252.80;;;;;;4956464;28;20023;-85
2022/12/24 19:19:03;;;;;;;272.75;202.77;;;205.10;2252.80;;;;;;4955740;29;20031;-85
2022/12/24 19:21:29;;;;;;;273.52;199.57;;;205.10;2252.80;;;;;;4955722;29;20390;-85
2022/12/24 19:23:55;;;;;;;253.32;187.90;;;205.10;2252.80;;;;;;4955474;29;20121;-87
2022/12/24 19:26:21;;;;;;;251.43;186.68;;;205.10;2252.80;;;;;;4955311;29;20031;-87
2022/12/24 19:28:48;;;;;;;258.35;190.30;;;205.00;2252.80;;;;;;4956793;29;20564;-86
2022/12/24 19:31:19;;;;;;;360.90;263.30;;;205.00;2252.80;;;;;;4955307;29;20033;-87
2022/12/24 19:33:47;;;;;;;394.20;276.58;;;205.10;2252.80;;;;;;4955587;29;20034;-85
2022/12/24 19:36:19;;;;;;;386.40;282.08;;;205.00;2252.80;;;;;;4955497;29;20111;-88
2022/12/24 19:38:46;;;;;;;410.25;284.20;;;205.00;2252.80;;;;;;4955546;29;20484;-88
2022/12/24 19:41:14;;;;;;;363.15;259.90;;;205.00;2252.80;;;;;;4955348;29;20491;-85
2022/12/24 19:43:41;;;;;;;331.83;238.27;;;205.00;2252.80;;;;;;4955144;29;20054;-84
2022/12/24 19:46:09;;;;;;;300.80;213.70;;;205.00;2252.80;;;;;;4955061;29;20533;-85
2022/12/24 19:48:34;;;;;;;259.38;189.25;;;205.00;2252.80;;;;;;4955214;29;20380;-85
2022/12/24 19:51:01;;;;;;;251.23;179.82;;;204.90;2252.80;;;;;;4956333;29;20027;-87
2022/12/24 19:53:28;;;;;;;188.70;134.32;;;204.90;2252.80;;;;;;4956132;28;20064;-86
2022/12/24 19:55:53;;;;;;;160.95;116.35;;;204.90;2252.80;;;;;;4955166;29;20118;-84
2022/12/24 19:58:19;;;;;;;213.15;134.68;;;204.90;2252.80;;;;;;4954931;29;20114;-85
2022/12/24 20:00:45;;;;;;;194.75;129.27;;;204.90;2252.80;;;;;;4955055;29;20464;-84
2022/12/24 20:03:11;;;;;;;174.05;117.43;;;204.90;2252.80;;;;;;4955042;29;20042;-88
2022/12/24 20:05:39;;;;;;;156.73;113.70;;;204.90;2252.80;;;;;;4954715;29;20475;-86
2022/12/24 20:08:06;;;;;;;138.88;103.35;;;204.90;2252.80;;;;;;4954695;29;20035;-88
2022/12/24 20:10:31;;;;;;;124.65;89.68;;;205.00;2252.80;;;;;;4954997;29;20055;-91
2022/12/24 20:12:57;;;;;;;216.35;151.10;;;205.00;2252.80;;;;;;4954542;29;20383;-85
2022/12/24 20:15:23;;;;;;;191.70;130.60;;;205.00;2252.80;;;;;;4954889;29;20062;-86
2022/12/24 20:17:51;;;;;;;343.45;238.13;;;205.00;2252.80;;;;;;4954859;29;20039;-87
2022/12/24 20:20:17;;;;;;;280.42;202.38;;;205.00;2252.80;;;;;;4954577;29;20027;-86
2022/12/24 20:22:43;;;;;;;368.55;262.88;;;205.00;2252.80;;;;;;4954038;28;20033;-86
2022/12/24 20:25:09;;;;;;;396.50;279.85;;;205.00;2252.80;;;;;;4972545;28;20057;-88
2022/12/24 20:27:35;;;;;;;401.90;285.48;;;205.00;2252.80;;;;;;4973014;28;20058;-85
2022/12/24 20:30:00;;;;;;;410.20;297.75;;;205.00;2252.80;;;;;;4973549;28;20034;-83
2022/12/24 20:32:26;;;;;;;406.98;291.63;;;205.00;2252.80;;;;;;4973685;28;20037;-87
2022/12/24 20:34:52;;;;;;;339.92;249.23;;;205.00;2252.80;;;;;;4973390;28;20066;-88
2022/12/24 20:37:17;;;;;;;285.00;213.90;;;205.00;2252.80;;;;;;4974017;28;20035;-89
2022/12/24 20:39:43;;;;;;;271.63;194.60;;;205.00;2252.80;;;;;;4973875;28;20110;-87
2022/12/24 20:42:10;;;;;;;276.17;200.65;;;205.00;2252.80;;;;;;4973529;28;20422;-86
2022/12/24 20:44:36;;;;;;;317.83;227.60;;;205.00;2252.80;;;;;;4972982;28;20169;-87
2022/12/24 20:47:02;;;;;;;346.27;262.20;;;205.00;2252.80;;;;;;4974108;28;20058;-86
2022/12/24 20:49:28;;;;;;;393.02;291.08;;;205.00;2252.80;;;;;;4973834;28;20121;-84
2022/12/24 20:51:53;;;;;;;411.35;294.23;;;205.00;2252.80;;;;;;4971912;28;20034;-88
2022/12/24 20:54:19;;;;;;;439.85;312.90;;;205.00;2252.80;;;;;;4964228;28;20040;-84
2022/12/24 20:56:46;;;;;;;399.58;286.73;;;205.00;2252.80;;;;;;4965123;28;20035;-85
2022/12/24 20:59:12;;;;;;;348.13;256.90;;;205.00;2252.80;;;;;;4968928;28;20034;-87
2022/12/24 21:01:38;;;;;;;308.30;229.38;;;204.90;2252.80;;;;;;4963305;28;20039;-87
2022/12/24 21:04:06;;;;;;;278.10;206.20;;;204.90;2252.80;;;;;;4960238;28;20031;-86
2022/12/24 21:06:33;;;;;;;331.10;244.77;;;204.90;2252.80;;;;;;4964729;28;20022;-87
2022/12/24 21:08:59;;;;;;;302.85;230.65;;;204.90;2252.80;;;;;;4970210;28;20038;-87
2022/12/24 21:14:10;;;;;;;320.33;235.57;;;204.90;2252.80;;;;;;4973658;28;20041;-87
2022/12/24 21:16:37;;;;;;;438.98;328.40;;;205.00;2252.80;;;;;;4957114;28;20388;-85
2022/12/24 21:19:04;;;;;;;462.67;322.65;;;204.90;2252.80;;;;;;4957146;28;20114;-86
2022/12/24 21:21:31;;;;;;;375.35;261.02;;;204.80;2252.80;;;;;;4957332;28;20074;-88
2022/12/24 21:23:57;;;;;;;326.80;221.88;;;205.00;2252.80;;;;;;4957617;28;20039;-86
2022/12/24 21:26:23;;;;;;;262.98;184.35;;;204.90;2252.80;;;;;;4957845;28;20431;-87
2022/12/24 21:28:49;;;;;;;231.90;159.32;;;204.90;2252.80;;;;;;4957840;28;20038;-87
2022/12/24 21:31:15;;;;;;;254.63;166.38;;;204.90;2252.80;;;;;;4957260;28;20031;-89
2022/12/24 21:33:41;;;;;;;259.75;184.35;;;205.00;2252.80;;;;;;4957541;28;20057;-91